Mount Pleasant, Falkland Islands

6:30 PM FKST on February 08, 2016 (GMT -0300)
MPA | | Change Station
CLOSE
Current Station
Personal Weather Station
Location: Mount Pleasant, EAST FALKLAND
Elevation: 194 ft
Nearby Weather Stations

Elev 194 ft 51.83 °S, 58.45 °W | Updated 36 seconds ago

Mostly Cloudy
Mostly Cloudy
67.7 °F
Feels Like 67.7 °F
N
10.2
Wind Variable Wind from South
Gusts 50.9 mph

Today
High -- | Low -- °F
--% Chance of Precip.
Yesterday
High -- | Low -- °F
Precip. -- in
Pressure 29.36 in
Visibility 6.2 miles
Clouds Scattered Clouds 1000 ft
Mostly Cloudy 10000 ft
Dew Point 51 °F
Humidity 56%
Rainfall 0.00 in
Snow Depth Not available.
5:41 AM 8:33 PM
New Moon, 0% visible
METAR SFAL 082120Z 29014KT 9999 SCT010 BKN100 14/12 Q0994 GRN NOSIG
Pressure 29.36 in
Visibility 6.2 miles
Clouds Scattered Clouds 1000 ft
Mostly Cloudy 10000 ft
Dew Point 51 °F
Humidity 56%
Rainfall 0.00 in
Snow Depth Not available.
5:41 AM 8:33 PM
New Moon, 0% visible
METAR SFAL 082120Z 29014KT 9999 SCT010 BKN100 14/12 Q0994 GRN NOSIG

10-Day Weather Forecast

No radar image for this location.
×

Almanac

Astronomy

Feb. 08, 2016 Rise Set
Actual Time
Civil Twilight
Nautical Twilight
Astronomical Twilight
Moon
Length of Visible Light
Length of Day
Tomorrow will be .
, % of the Moon is Illuminated

Today's Extremes

Country Highs Country Lows

Community

WunderPhotos

Upload Photos

1,891,516 photos uploaded!

WunderBlog® & News

Nearby

Air Quality

  Air Quality AQ Index Pollutant
Not available.

Snow Depth

Station Depth Elevation

Earthquake Activity

City Distance Mag. Time & Date
Minimum magnitude displayed is 2.5.

Coastal Water Temperatures

Place Temperature

Stations

Nearby Weather Stations

Station Location Temp. Windchill Dew Point Humidity Wind Precip. Elev Updated Type